sensor_id;sensor_type;location;lat;lon;timestamp;pressure;altitude;pressure_sealevel;temperature;humidity
64298;BME280;50639;53.270;7.956;2023-05-07T00:01:12;101957.72;;;12.19;73.98
64298;BME280;50639;53.270;7.956;2023-05-07T00:03:38;101958.22;;;12.15;74.05
64298;BME280;50639;53.270;7.956;2023-05-07T00:06:04;101955.22;;;12.18;74.18
64298;BME280;50639;53.270;7.956;2023-05-07T00:08:30;101950.53;;;12.20;73.89
64298;BME280;50639;53.270;7.956;2023-05-07T00:10:56;101937.28;;;12.18;73.87
64298;BME280;50639;53.270;7.956;2023-05-07T00:13:21;101935.47;;;12.19;73.77
64298;BME280;50639;53.270;7.956;2023-05-07T00:15:46;101941.16;;;12.16;74.05
64298;BME280;50639;53.270;7.956;2023-05-07T00:18:12;101943.00;;;12.15;73.94
64298;BME280;50639;53.270;7.956;2023-05-07T00:20:37;101946.88;;;12.13;74.16
64298;BME280;50639;53.270;7.956;2023-05-07T00:23:03;101950.88;;;12.09;74.07
64298;BME280;50639;53.270;7.956;2023-05-07T00:25:28;101943.19;;;12.05;74.34
64298;BME280;50639;53.270;7.956;2023-05-07T00:27:54;101954.75;;;12.06;74.13
64298;BME280;50639;53.270;7.956;2023-05-07T00:30:20;101948.25;;;12.00;74.53
64298;BME280;50639;53.270;7.956;2023-05-07T00:32:45;101953.31;;;11.87;74.72
64298;BME280;50639;53.270;7.956;2023-05-07T00:35:11;101948.09;;;11.94;74.80
64298;BME280;50639;53.270;7.956;2023-05-07T00:37:36;101951.91;;;11.99;74.46
64298;BME280;50639;53.270;7.956;2023-05-07T00:40:02;101949.94;;;11.93;74.41
64298;BME280;50639;53.270;7.956;2023-05-07T00:42:30;101948.09;;;11.94;74.48
64298;BME280;50639;53.270;7.956;2023-05-07T00:44:58;101944.22;;;11.96;74.49
64298;BME280;50639;53.270;7.956;2023-05-07T00:47:24;101944.88;;;11.98;74.13
64298;BME280;50639;53.270;7.956;2023-05-07T00:49:50;101947.56;;;11.98;73.95
64298;BME280;50639;53.270;7.956;2023-05-07T00:52:17;101942.91;;;11.92;74.16
64298;BME280;50639;53.270;7.956;2023-05-07T00:54:44;101947.09;;;11.95;74.10
64298;BME280;50639;53.270;7.956;2023-05-07T00:57:10;101948.56;;;11.97;74.16
64298;BME280;50639;53.270;7.956;2023-05-07T00:59:37;101951.63;;;11.94;73.81
64298;BME280;50639;53.270;7.956;2023-05-07T01:02:03;101956.13;;;11.61;75.34
64298;BME280;50639;53.270;7.956;2023-05-07T01:04:29;101938.59;;;11.75;75.02
64298;BME280;50639;53.270;7.956;2023-05-07T01:06:56;101938.06;;;11.88;74.44
64298;BME280;50639;53.270;7.956;2023-05-07T01:09:28;101936.22;;;11.80;74.40
64298;BME280;50639;53.270;7.956;2023-05-07T01:11:55;101939.44;;;11.76;74.28
64298;BME280;50639;53.270;7.956;2023-05-07T01:14:23;101939.91;;;11.71;74.89
64298;BME280;50639;53.270;7.956;2023-05-07T01:16:48;101936.06;;;11.74;74.90
64298;BME280;50639;53.270;7.956;2023-05-07T01:19:18;101951.59;;;11.70;75.02
64298;BME280;50639;53.270;7.956;2023-05-07T01:21:48;101951.81;;;11.68;75.16
64298;BME280;50639;53.270;7.956;2023-05-07T01:24:16;101956.97;;;11.70;74.73
64298;BME280;50639;53.270;7.956;2023-05-07T01:26:43;101961.00;;;11.66;75.01
64298;BME280;50639;53.270;7.956;2023-05-07T01:31:42;101959.63;;;11.70;75.04
64298;BME280;50639;53.270;7.956;2023-05-07T01:34:09;101951.13;;;11.66;74.51
64298;BME280;50639;53.270;7.956;2023-05-07T01:36:37;101952.31;;;11.64;74.58
64298;BME280;50639;53.270;7.956;2023-05-07T01:39:04;101955.66;;;11.66;74.49
64298;BME280;50639;53.270;7.956;2023-05-07T01:41:30;101948.81;;;11.55;75.35
64298;BME280;50639;53.270;7.956;2023-05-07T01:43:57;101956.16;;;11.53;75.25
64298;BME280;50639;53.270;7.956;2023-05-07T01:46:23;101955.00;;;11.56;74.70
64298;BME280;50639;53.270;7.956;2023-05-07T01:48:50;101955.31;;;11.45;75.09
64298;BME280;50639;53.270;7.956;2023-05-07T01:51:15;101938.13;;;11.39;74.95
64298;BME280;50639;53.270;7.956;2023-05-07T01:53:41;101955.16;;;11.46;74.37
64298;BME280;50639;53.270;7.956;2023-05-07T01:56:09;101954.50;;;11.36;75.08
64298;BME280;50639;53.270;7.956;2023-05-07T01:58:37;101957.84;;;11.38;74.72
64298;BME280;50639;53.270;7.956;2023-05-07T02:01:02;101962.03;;;11.16;75.70
64298;BME280;50639;53.270;7.956;2023-05-07T02:03:28;101961.19;;;11.24;74.92
64298;BME280;50639;53.270;7.956;2023-05-07T02:06:03;101963.88;;;11.24;75.02
64298;BME280;50639;53.270;7.956;2023-05-07T02:08:34;101965.34;;;11.26;74.79
64298;BME280;50639;53.270;7.956;2023-05-07T02:11:00;101959.69;;;11.21;74.57
64298;BME280;50639;53.270;7.956;2023-05-07T02:13:29;101964.03;;;11.22;75.17
64298;BME280;50639;53.270;7.956;2023-05-07T02:15:55;101961.88;;;11.34;75.06
64298;BME280;50639;53.270;7.956;2023-05-07T02:18:22;101962.19;;;11.31;75.05
64298;BME280;50639;53.270;7.956;2023-05-07T02:20:48;101953.66;;;11.36;74.51
64298;BME280;50639;53.270;7.956;2023-05-07T02:23:13;101965.34;;;11.18;74.92
64298;BME280;50639;53.270;7.956;2023-05-07T02:25:39;101967.19;;;11.18;74.97
64298;BME280;50639;53.270;7.956;2023-05-07T02:28:04;101957.84;;;11.22;74.92
64298;BME280;50639;53.270;7.956;2023-05-07T02:30:53;101965.53;;;11.17;75.34
64298;BME280;50639;53.270;7.956;2023-05-07T02:33:19;101964.72;;;11.24;74.42
64298;BME280;50639;53.270;7.956;2023-05-07T02:35:45;101965.03;;;11.21;74.96
64298;BME280;50639;53.270;7.956;2023-05-07T02:38:13;101967.03;;;11.19;74.72
64298;BME280;50639;53.270;7.956;2023-05-07T02:40:39;101969.72;;;11.19;74.21
64298;BME280;50639;53.270;7.956;2023-05-07T02:43:05;101972.69;;;11.08;74.52
64298;BME280;50639;53.270;7.956;2023-05-07T02:45:32;101962.84;;;11.09;74.23
64298;BME280;50639;53.270;7.956;2023-05-07T02:47:58;101977.03;;;11.01;75.22
64298;BME280;50639;53.270;7.956;2023-05-07T02:50:24;101966.88;;;11.05;74.75
64298;BME280;50639;53.270;7.956;2023-05-07T02:52:50;101969.69;;;11.03;75.12
64298;BME280;50639;53.270;7.956;2023-05-07T02:55:16;101971.19;;;10.98;75.48
64298;BME280;50639;53.270;7.956;2023-05-07T02:57:42;101976.03;;;10.94;75.68
64298;BME280;50639;53.270;7.956;2023-05-07T03:00:15;101975.03;;;10.95;75.10
64298;BME280;50639;53.270;7.956;2023-05-07T03:02:48;101972.34;;;10.87;75.15
64298;BME280;50639;53.270;7.956;2023-05-07T03:05:14;101966.31;;;10.77;75.73
64298;BME280;50639;53.270;7.956;2023-05-07T03:07:39;101967.97;;;10.78;75.15
64298;BME280;50639;53.270;7.956;2023-05-07T03:10:06;101973.16;;;10.71;75.56
64298;BME280;50639;53.270;7.956;2023-05-07T03:12:32;101958.44;;;10.67;75.84
64298;BME280;50639;53.270;7.956;2023-05-07T03:14:57;101962.47;;;10.71;75.09
64298;BME280;50639;53.270;7.956;2023-05-07T03:17:23;101958.28;;;10.69;75.57
64298;BME280;50639;53.270;7.956;2023-05-07T03:19:48;101962.09;;;10.66;75.79
64298;BME280;50639;53.270;7.956;2023-05-07T03:22:14;101968.78;;;10.62;76.34
64298;BME280;50639;53.270;7.956;2023-05-07T03:24:39;101968.56;;;10.55;76.27
64298;BME280;50639;53.270;7.956;2023-05-07T03:27:04;101968.28;;;10.67;75.92
64298;BME280;50639;53.270;7.956;2023-05-07T03:29:31;101963.78;;;10.67;75.47
64298;BME280;50639;53.270;7.956;2023-05-07T03:31:57;101960.94;;;10.69;75.05
64298;BME280;50639;53.270;7.956;2023-05-07T03:34:22;101964.56;;;10.51;76.14
64298;BME280;50639;53.270;7.956;2023-05-07T03:36:48;101970.75;;;10.52;76.57
64298;BME280;50639;53.270;7.956;2023-05-07T03:39:14;101960.56;;;10.55;76.31
64298;BME280;50639;53.270;7.956;2023-05-07T03:41:40;101957.84;;;10.47;76.20
64298;BME280;50639;53.270;7.956;2023-05-07T03:44:06;101975.09;;;10.53;77.01
64298;BME280;50639;53.270;7.956;2023-05-07T03:46:31;101964.91;;;10.56;75.89
64298;BME280;50639;53.270;7.956;2023-05-07T03:48:59;101968.22;;;10.50;76.22
64298;BME280;50639;53.270;7.956;2023-05-07T03:51:24;101967.75;;;10.55;75.54
64298;BME280;50639;53.270;7.956;2023-05-07T03:53:51;101964.44;;;10.61;75.83
64298;BME280;50639;53.270;7.956;2023-05-07T03:56:19;101959.22;;;10.51;76.68
64298;BME280;50639;53.270;7.956;2023-05-07T03:58:45;101967.09;;;10.61;76.07
64298;BME280;50639;53.270;7.956;2023-05-07T04:01:11;101962.91;;;10.59;75.87
64298;BME280;50639;53.270;7.956;2023-05-07T04:03:37;101961.91;;;10.51;75.74
64298;BME280;50639;53.270;7.956;2023-05-07T04:06:03;101961.91;;;10.60;75.80
64298;BME280;50639;53.270;7.956;2023-05-07T04:08:31;101959.94;;;10.62;75.73
64298;BME280;50639;53.270;7.956;2023-05-07T04:10:58;101955.56;;;10.61;75.74
64298;BME280;50639;53.270;7.956;2023-05-07T04:13:27;101962.00;;;10.34;76.30
64298;BME280;50639;53.270;7.956;2023-05-07T04:15:54;101964.88;;;10.48;76.34
64298;BME280;50639;53.270;7.956;2023-05-07T04:18:20;101969.22;;;10.49;75.92
64298;BME280;50639;53.270;7.956;2023-05-07T04:20:48;101963.19;;;10.39;76.21
64298;BME280;50639;53.270;7.956;2023-05-07T04:23:15;101961.88;;;10.43;76.47
64298;BME280;50639;53.270;7.956;2023-05-07T04:25:40;101964.88;;;10.48;76.28
64298;BME280;50639;53.270;7.956;2023-05-07T04:28:42;101974.56;;;10.49;75.66
64298;BME280;50639;53.270;7.956;2023-05-07T04:31:07;101980.56;;;10.43;75.61
64298;BME280;50639;53.270;7.956;2023-05-07T04:33:35;101984.22;;;10.42;75.60
64298;BME280;50639;53.270;7.956;2023-05-07T04:36:02;101984.88;;;10.36;75.90
64298;BME280;50639;53.270;7.956;2023-05-07T04:38:30;101989.50;;;10.26;76.74
64298;BME280;50639;53.270;7.956;2023-05-07T04:41:03;101985.38;;;10.40;75.92
64298;BME280;50639;53.270;7.956;2023-05-07T04:43:30;101987.22;;;10.39;75.69
64298;BME280;50639;53.270;7.956;2023-05-07T04:45:55;101991.06;;;10.37;76.51
64298;BME280;50639;53.270;7.956;2023-05-07T04:48:24;101990.94;;;10.46;75.58
64298;BME280;50639;53.270;7.956;2023-05-07T04:50:51;101980.75;;;10.50;75.04
64298;BME280;50639;53.270;7.956;2023-05-07T04:53:18;101977.25;;;10.49;75.58
64298;BME280;50639;53.270;7.956;2023-05-07T04:55:44;101979.22;;;10.47;76.18
64298;BME280;50639;53.270;7.956;2023-05-07T04:58:11;101986.63;;;10.53;75.38
64298;BME280;50639;53.270;7.956;2023-05-07T05:00:38;101989.31;;;10.62;75.39
64298;BME280;50639;53.270;7.956;2023-05-07T05:03:08;101988.31;;;10.63;75.07
64298;BME280;50639;53.270;7.956;2023-05-07T05:05:36;101989.66;;;10.67;74.54
64298;BME280;50639;53.270;7.956;2023-05-07T05:08:02;101990.50;;;10.75;75.04
64298;BME280;50639;53.270;7.956;2023-05-07T05:10:28;101996.59;;;10.43;76.79
64298;BME280;50639;53.270;7.956;2023-05-07T05:12:54;101989.66;;;10.67;75.05
64298;BME280;50639;53.270;7.956;2023-05-07T05:15:21;101995.84;;;10.67;75.44
64298;BME280;50639;53.270;7.956;2023-05-07T05:17:47;102006.72;;;10.74;75.03
64298;BME280;50639;53.270;7.956;2023-05-07T05:20:13;101995.69;;;10.69;75.25
64298;BME280;50639;53.270;7.956;2023-05-07T05:22:41;101998.88;;;10.72;74.30
64298;BME280;50639;53.270;7.956;2023-05-07T05:25:07;101998.00;;;10.64;75.35
64298;BME280;50639;53.270;7.956;2023-05-07T05:27:34;102008.72;;;10.72;75.09
64298;BME280;50639;53.270;7.956;2023-05-07T05:29:59;102009.22;;;10.75;75.47
64298;BME280;50639;53.270;7.956;2023-05-07T05:32:25;102016.22;;;10.68;74.77
64298;BME280;50639;53.270;7.956;2023-05-07T05:34:53;102023.03;;;10.54;75.22
64298;BME280;50639;53.270;7.956;2023-05-07T05:37:19;102012.88;;;10.74;75.52
64298;BME280;50639;53.270;7.956;2023-05-07T05:39:44;102021.53;;;10.60;75.29
64298;BME280;50639;53.270;7.956;2023-05-07T05:42:10;102022.41;;;10.69;75.23
64298;BME280;50639;53.270;7.956;2023-05-07T05:44:35;102014.34;;;10.61;76.00
64298;BME280;50639;53.270;7.956;2023-05-07T05:47:02;102010.72;;;10.70;74.94
64298;BME280;50639;53.270;7.956;2023-05-07T05:49:29;102012.88;;;10.66;75.54
64298;BME280;50639;53.270;7.956;2023-05-07T05:51:55;102021.56;;;10.68;74.58
64298;BME280;50639;53.270;7.956;2023-05-07T05:54:23;102019.88;;;10.67;74.73
64298;BME280;50639;53.270;7.956;2023-05-07T05:56:48;102010.06;;;10.76;75.03
64298;BME280;50639;53.270;7.956;2023-05-07T05:59:15;102029.28;;;10.71;75.36
64298;BME280;50639;53.270;7.956;2023-05-07T06:01:40;102018.44;;;10.81;74.63
64298;BME280;50639;53.270;7.956;2023-05-07T06:04:06;102026.66;;;10.87;74.92
64298;BME280;50639;53.270;7.956;2023-05-07T06:06:31;102024.66;;;10.89;74.28
64298;BME280;50639;53.270;7.956;2023-05-07T06:08:57;102022.47;;;10.93;75.10
64298;BME280;50639;53.270;7.956;2023-05-07T06:11:29;102027.63;;;10.86;75.18
64298;BME280;50639;53.270;7.956;2023-05-07T06:13:54;102022.59;;;10.75;75.50
64298;BME280;50639;53.270;7.956;2023-05-07T06:16:20;102022.44;;;10.85;75.33
64298;BME280;50639;53.270;7.956;2023-05-07T06:18:47;102027.06;;;10.67;76.19
64298;BME280;50639;53.270;7.956;2023-05-07T06:21:14;102038.09;;;10.64;76.43
64298;BME280;50639;53.270;7.956;2023-05-07T06:23:40;102035.31;;;10.81;76.09
64298;BME280;50639;53.270;7.956;2023-05-07T06:26:06;102032.81;;;10.88;75.53
64298;BME280;50639;53.270;7.956;2023-05-07T06:28:37;102041.19;;;10.93;75.78
64298;BME280;50639;53.270;7.956;2023-05-07T06:31:16;102034.66;;;10.87;75.51
64298;BME280;50639;53.270;7.956;2023-05-07T06:33:46;102033.47;;;10.82;76.18
64298;BME280;50639;53.270;7.956;2023-05-07T06:36:13;102045.38;;;10.96;75.42
64298;BME280;50639;53.270;7.956;2023-05-07T06:38:39;102046.56;;;11.09;75.44
64298;BME280;50639;53.270;7.956;2023-05-07T06:41:06;102048.94;;;11.12;75.33
64298;BME280;50639;53.270;7.956;2023-05-07T06:43:32;102045.41;;;11.12;74.95
64298;BME280;50639;53.270;7.956;2023-05-07T06:46:30;102047.41;;;11.18;74.54
64298;BME280;50639;53.270;7.956;2023-05-07T06:48:56;102047.94;;;11.21;74.20
64298;BME280;50639;53.270;7.956;2023-05-07T06:51:22;102042.41;;;11.07;74.96
64298;BME280;50639;53.270;7.956;2023-05-07T06:53:48;102047.94;;;11.21;74.45
64298;BME280;50639;53.270;7.956;2023-05-07T06:56:14;102058.66;;;11.21;75.07
64298;BME280;50639;53.270;7.956;2023-05-07T06:58:39;102053.47;;;11.28;74.77
64298;BME280;50639;53.270;7.956;2023-05-07T07:01:06;102054.66;;;11.25;74.34
64298;BME280;50639;53.270;7.956;2023-05-07T07:03:33;102053.28;;;11.21;75.16
64298;BME280;50639;53.270;7.956;2023-05-07T07:05:58;102057.97;;;11.19;74.31
64298;BME280;50639;53.270;7.956;2023-05-07T07:08:25;102062.84;;;11.32;74.21
64298;BME280;50639;53.270;7.956;2023-05-07T07:10:51;102064.19;;;11.44;73.88
64298;BME280;50639;53.270;7.956;2023-05-07T07:13:16;102069.22;;;11.47;74.01
64298;BME280;50639;53.270;7.956;2023-05-07T07:15:43;102078.75;;;11.50;73.84
64298;BME280;50639;53.270;7.956;2023-05-07T07:18:08;102076.56;;;11.45;73.56
64298;BME280;50639;53.270;7.956;2023-05-07T07:20:34;102077.41;;;11.62;74.00
64298;BME280;50639;53.270;7.956;2023-05-07T07:23:00;102074.72;;;11.54;73.56
64298;BME280;50639;53.270;7.956;2023-05-07T07:25:26;102077.09;;;11.73;73.23
64298;BME280;50639;53.270;7.956;2023-05-07T07:27:52;102077.28;;;11.80;72.79
64298;BME280;50639;53.270;7.956;2023-05-07T07:30:18;102080.31;;;11.77;72.89
64298;BME280;50639;53.270;7.956;2023-05-07T07:32:46;102078.75;;;11.74;73.22
64298;BME280;50639;53.270;7.956;2023-05-07T07:35:12;102076.28;;;11.89;72.86
64298;BME280;50639;53.270;7.956;2023-05-07T07:37:38;102069.25;;;11.80;72.73
64298;BME280;50639;53.270;7.956;2023-05-07T07:40:04;102078.97;;;11.81;72.67
64298;BME280;50639;53.270;7.956;2023-05-07T07:42:31;102078.94;;;11.73;72.84
64298;BME280;50639;53.270;7.956;2023-05-07T07:44:57;102080.31;;;11.77;72.48
64298;BME280;50639;53.270;7.956;2023-05-07T07:47:24;102069.44;;;11.86;72.35
64298;BME280;50639;53.270;7.956;2023-05-07T07:49:51;102081.44;;;11.58;72.42
64298;BME280;50639;53.270;7.956;2023-05-07T07:52:18;102076.94;;;11.58;73.13
64298;BME280;50639;53.270;7.956;2023-05-07T07:54:44;102073.13;;;11.85;72.63
64298;BME280;50639;53.270;7.956;2023-05-07T07:57:10;102067.75;;;11.77;72.55
64298;BME280;50639;53.270;7.956;2023-05-07T07:59:36;102065.91;;;11.69;72.98
64298;BME280;50639;53.270;7.956;2023-05-07T08:02:03;102069.59;;;11.85;72.79
64298;BME280;50639;53.270;7.956;2023-05-07T08:04:29;102060.91;;;11.75;73.06
64298;BME280;50639;53.270;7.956;2023-05-07T08:07:00;102072.59;;;11.98;72.24
64298;BME280;50639;53.270;7.956;2023-05-07T08:09:25;102071.09;;;11.95;73.46
64298;BME280;50639;53.270;7.956;2023-05-07T08:11:53;102075.91;;;12.16;72.04
64298;BME280;50639;53.270;7.956;2023-05-07T08:14:18;102075.44;;;12.13;71.80
64298;BME280;50639;53.270;7.956;2023-05-07T08:16:46;102076.56;;;12.26;71.73
64298;BME280;50639;53.270;7.956;2023-05-07T08:19:12;102078.41;;;12.26;71.74
64298;BME280;50639;53.270;7.956;2023-05-07T08:21:40;102083.41;;;12.37;71.53
64298;BME280;50639;53.270;7.956;2023-05-07T08:24:07;102081.56;;;12.37;70.84
64298;BME280;50639;53.270;7.956;2023-05-07T08:26:34;102091.13;;;12.40;71.01
64298;BME280;50639;53.270;7.956;2023-05-07T08:29:01;102084.13;;;12.31;71.24
64298;BME280;50639;53.270;7.956;2023-05-07T08:31:27;102081.09;;;12.26;71.08
64298;BME280;50639;53.270;7.956;2023-05-07T08:33:52;102089.13;;;12.26;70.08
64298;BME280;50639;53.270;7.956;2023-05-07T08:36:17;102089.31;;;12.16;70.79
64298;BME280;50639;53.270;7.956;2023-05-07T08:38:44;102088.63;;;12.14;70.50
64298;BME280;50639;53.270;7.956;2023-05-07T08:41:11;102090.28;;;12.23;70.19
64298;BME280;50639;53.270;7.956;2023-05-07T08:43:40;102093.69;;;12.01;71.48
64298;BME280;50639;53.270;7.956;2023-05-07T08:46:08;102102.03;;;12.22;70.54
64298;BME280;50639;53.270;7.956;2023-05-07T08:48:37;102096.00;;;12.28;70.69
64298;BME280;50639;53.270;7.956;2023-05-07T08:51:16;102107.88;;;12.34;70.98
64298;BME280;50639;53.270;7.956;2023-05-07T08:53:43;102098.66;;;12.36;70.22
64298;BME280;50639;53.270;7.956;2023-05-07T08:56:14;102092.59;;;12.42;70.44
64298;BME280;50639;53.270;7.956;2023-05-07T08:58:41;102097.31;;;12.32;70.10
64298;BME280;50639;53.270;7.956;2023-05-07T09:01:08;102104.72;;;12.30;69.90
64298;BME280;50639;53.270;7.956;2023-05-07T09:03:37;102103.97;;;12.53;69.04
64298;BME280;50639;53.270;7.956;2023-05-07T09:06:03;102097.72;;;12.68;69.50
64298;BME280;50639;53.270;7.956;2023-05-07T09:08:29;102095.16;;;12.83;68.98
64298;BME280;50639;53.270;7.956;2023-05-07T09:10:58;102101.00;;;12.87;68.39
64298;BME280;50639;53.270;7.956;2023-05-07T09:13:24;102092.09;;;12.94;68.29
64298;BME280;50639;53.270;7.956;2023-05-07T09:15:50;102092.53;;;12.75;68.71
64298;BME280;50639;53.270;7.956;2023-05-07T09:18:16;102089.16;;;13.12;67.59
64298;BME280;50639;53.270;7.956;2023-05-07T09:20:41;102098.19;;;13.50;66.39
64298;BME280;50639;53.270;7.956;2023-05-07T09:23:08;102100.78;;;13.81;66.37
64298;BME280;50639;53.270;7.956;2023-05-07T09:25:36;102099.38;;;14.08;65.24
64298;BME280;50639;53.270;7.956;2023-05-07T09:28:09;102104.97;;;14.06;64.74
64298;BME280;50639;53.270;7.956;2023-05-07T09:30:36;102111.78;;;14.31;65.01
64298;BME280;50639;53.270;7.956;2023-05-07T09:33:04;102100.13;;;14.39;63.74
64298;BME280;50639;53.270;7.956;2023-05-07T09:35:32;102101.88;;;14.47;63.30
64298;BME280;50639;53.270;7.956;2023-05-07T09:38:03;102103.72;;;14.61;63.71
64298;BME280;50639;53.270;7.956;2023-05-07T09:40:30;102111.25;;;14.65;63.42
64298;BME280;50639;53.270;7.956;2023-05-07T09:43:11;102096.31;;;14.92;62.19
64298;BME280;50639;53.270;7.956;2023-05-07T09:45:42;102093.94;;;15.04;61.77
64298;BME280;50639;53.270;7.956;2023-05-07T09:48:14;102097.72;;;15.24;61.28
64298;BME280;50639;53.270;7.956;2023-05-07T09:50:51;102083.00;;;15.56;60.33
64298;BME280;50639;53.270;7.956;2023-05-07T09:53:25;102086.81;;;15.68;60.79
64298;BME280;50639;53.270;7.956;2023-05-07T09:55:52;102076.03;;;15.90;59.59
64298;BME280;50639;53.270;7.956;2023-05-07T09:58:20;102091.97;;;16.12;58.92
64298;BME280;50639;53.270;7.956;2023-05-07T10:00:50;102083.03;;;16.12;58.18
64298;BME280;50639;53.270;7.956;2023-05-07T10:03:18;102086.63;;;16.19;56.71
64298;BME280;50639;53.270;7.956;2023-05-07T10:05:51;102092.28;;;16.03;57.96
64298;BME280;50639;53.270;7.956;2023-05-07T10:08:20;102091.28;;;16.04;58.70
64298;BME280;50639;53.270;7.956;2023-05-07T10:10:48;102095.75;;;16.18;57.58
64298;BME280;50639;53.270;7.956;2023-05-07T10:13:21;102101.31;;;15.67;58.22
64298;BME280;50639;53.270;7.956;2023-05-07T10:15:50;102095.09;;;15.88;59.18
64298;BME280;50639;53.270;7.956;2023-05-07T10:18:18;102102.25;;;16.02;58.80
64298;BME280;50639;53.270;7.956;2023-05-07T10:20:51;102096.44;;;16.27;57.74
64298;BME280;50639;53.270;7.956;2023-05-07T10:23:23;102099.31;;;16.25;57.14
64298;BME280;50639;53.270;7.956;2023-05-07T10:25:55;102090.25;;;16.33;56.41
64298;BME280;50639;53.270;7.956;2023-05-07T10:28:24;102087.38;;;16.06;57.43
64298;BME280;50639;53.270;7.956;2023-05-07T10:33:48;102095.19;;;16.98;57.17
64298;BME280;50639;53.270;7.956;2023-05-07T10:36:26;102097.50;;;17.01;57.02
64298;BME280;50639;53.270;7.956;2023-05-07T10:39:01;102097.31;;;17.09;55.65
64298;BME280;50639;53.270;7.956;2023-05-07T10:41:27;102087.78;;;16.66;56.64
64298;BME280;50639;53.270;7.956;2023-05-07T10:43:59;102083.50;;;16.78;56.67
64298;BME280;50639;53.270;7.956;2023-05-07T10:46:30;102091.84;;;16.89;56.07
64298;BME280;50639;53.270;7.956;2023-05-07T10:52:13;102095.84;;;17.74;56.04
64298;BME280;50639;53.270;7.956;2023-05-07T10:54:44;102099.50;;;17.47;56.17
64298;BME280;50639;53.270;7.956;2023-05-07T10:59:58;102097.19;;;17.30;55.71
64298;BME280;50639;53.270;7.956;2023-05-07T11:05:36;102099.66;;;17.25;54.83
64298;BME280;50639;53.270;7.956;2023-05-07T11:08:14;102094.13;;;16.86;55.72
64298;BME280;50639;53.270;7.956;2023-05-07T11:13:42;102093.47;;;16.84;56.05
64298;BME280;50639;53.270;7.956;2023-05-07T11:16:22;102099.06;;;16.48;57.44
64298;BME280;50639;53.270;7.956;2023-05-07T11:18:56;102093.03;;;16.46;56.46
64298;BME280;50639;53.270;7.956;2023-05-07T11:21:37;102094.97;;;16.93;58.48
64298;BME280;50639;53.270;7.956;2023-05-07T11:24:12;102095.72;;;17.28;56.45
64298;BME280;50639;53.270;7.956;2023-05-07T11:26:48;102098.06;;;17.51;56.73
64298;BME280;50639;53.270;7.956;2023-05-07T11:29:15;102095.63;;;17.69;56.21
64298;BME280;50639;53.270;7.956;2023-05-07T11:31:42;102079.00;;;17.79;54.46
64298;BME280;50639;53.270;7.956;2023-05-07T11:34:08;102087.88;;;17.59;54.74
64298;BME280;50639;53.270;7.956;2023-05-07T11:36:35;102089.00;;;17.98;55.78
64298;BME280;50639;53.270;7.956;2023-05-07T11:39:23;102096.06;;;17.66;53.63
64298;BME280;50639;53.270;7.956;2023-05-07T11:41:48;102090.31;;;17.28;55.14
64298;BME280;50639;53.270;7.956;2023-05-07T11:44:14;102097.50;;;17.82;54.21
64298;BME280;50639;53.270;7.956;2023-05-07T11:46:42;102093.75;;;17.63;54.77
64298;BME280;50639;53.270;7.956;2023-05-07T11:49:08;102096.44;;;17.70;55.49
64298;BME280;50639;53.270;7.956;2023-05-07T11:51:34;102094.81;;;17.88;53.91
64298;BME280;50639;53.270;7.956;2023-05-07T11:53:59;102092.72;;;18.03;54.06
64298;BME280;50639;53.270;7.956;2023-05-07T11:56:24;102095.44;;;18.03;53.81
64298;BME280;50639;53.270;7.956;2023-05-07T11:58:50;102096.25;;;18.04;53.96
64298;BME280;50639;53.270;7.956;2023-05-07T12:01:17;102097.09;;;17.91;53.55
64298;BME280;50639;53.270;7.956;2023-05-07T12:03:44;102105.19;;;17.65;54.13
64298;BME280;50639;53.270;7.956;2023-05-07T12:06:12;102086.72;;;17.82;54.22
64298;BME280;50639;53.270;7.956;2023-05-07T12:08:39;102092.94;;;18.15;53.83
64298;BME280;50639;53.270;7.956;2023-05-07T12:11:10;102089.22;;;17.83;55.17
64298;BME280;50639;53.270;7.956;2023-05-07T12:13:37;102102.50;;;17.78;54.27
64298;BME280;50639;53.270;7.956;2023-05-07T12:16:04;102100.00;;;17.03;55.51
64298;BME280;50639;53.270;7.956;2023-05-07T12:18:30;102096.09;;;17.12;54.85
64298;BME280;50639;53.270;7.956;2023-05-07T12:20:56;102098.75;;;17.73;54.84
64298;BME280;50639;53.270;7.956;2023-05-07T12:23:22;102090.88;;;18.11;54.77
64298;BME280;50639;53.270;7.956;2023-05-07T12:25:48;102083.56;;;18.04;54.64
64298;BME280;50639;53.270;7.956;2023-05-07T12:28:17;102095.19;;;18.31;53.29
64298;BME280;50639;53.270;7.956;2023-05-07T12:30:44;102093.31;;;18.45;52.96
64298;BME280;50639;53.270;7.956;2023-05-07T12:33:10;102093.28;;;18.65;53.47
64298;BME280;50639;53.270;7.956;2023-05-07T12:35:39;102087.88;;;18.52;51.97
64298;BME280;50639;53.270;7.956;2023-05-07T12:38:10;102094.56;;;18.62;52.62
64298;BME280;50639;53.270;7.956;2023-05-07T12:40:38;102096.63;;;18.54;52.58
64298;BME280;50639;53.270;7.956;2023-05-07T12:43:04;102094.34;;;18.57;52.71
64298;BME280;50639;53.270;7.956;2023-05-07T12:45:30;102094.13;;;18.39;53.26
64298;BME280;50639;53.270;7.956;2023-05-07T12:47:56;102094.56;;;18.62;53.72
64298;BME280;50639;53.270;7.956;2023-05-07T12:50:26;102097.22;;;18.75;52.06
64298;BME280;50639;53.270;7.956;2023-05-07T12:52:55;102101.19;;;18.66;51.50
64298;BME280;50639;53.270;7.956;2023-05-07T12:55:21;102099.91;;;18.82;51.54
64298;BME280;50639;53.270;7.956;2023-05-07T12:57:48;102102.84;;;18.81;50.71
64298;BME280;50639;53.270;7.956;2023-05-07T13:00:15;102102.38;;;18.90;51.05
64298;BME280;50639;53.270;7.956;2023-05-07T13:02:42;102105.94;;;18.91;50.94
64298;BME280;50639;53.270;7.956;2023-05-07T13:05:11;102100.03;;;19.07;51.07
64298;BME280;50639;53.270;7.956;2023-05-07T13:07:37;102109.28;;;19.31;50.11
64298;BME280;50639;53.270;7.956;2023-05-07T13:10:03;102111.25;;;19.55;49.23